Time;durP1;ratioP1;P1;durP2;ratioP2;P2;SDS_P1;SDS_P2;PMS_P1;PMS_P2;Temp;Humidity;BMP_temperature;BMP_pressure;BME280_temperature;BME280_humidity;BME280_pressure;Samples;Min_cycle;Max_cycle;Signal;HPM_P1;HPM_P2
2022/08/07 00:01:19;;;;;;;0.30;0.30;;;15.70;96.00;;;;;;5021769;28;20444;-62
2022/08/07 00:04:08;;;;;;;0.70;0.30;;;15.70;96.10;;;;;;5013820;28;20411;-61
2022/08/07 00:06:41;;;;;;;0.40;0.40;;;15.70;96.00;;;;;;5026980;28;20856;-62
2022/08/07 00:09:19;;;;;;;0.30;0.30;;;15.60;96.10;;;;;;5023740;28;20438;-62
2022/08/07 00:11:50;;;;;;;0.20;0.20;;;15.60;96.10;;;;;;4995529;28;20495;-63
2022/08/07 00:14:25;;;;;;;0.40;0.40;;;15.50;96.50;;;;;;5026228;28;20434;-63
2022/08/07 00:17:00;;;;;;;0.20;0.20;;;15.50;96.40;;;;;;5038604;28;20439;-61
2022/08/07 00:19:30;;;;;;;0.20;0.20;;;15.40;96.40;;;;;;5026836;28;20523;-63
2022/08/07 00:22:17;;;;;;;0.15;0.15;;;15.40;96.30;;;;;;5027634;28;20415;-62
2022/08/07 00:25:02;;;;;;;0.30;0.30;;;15.40;96.40;;;;;;5023817;28;20525;-62
2022/08/07 00:27:29;;;;;;;0.90;0.30;;;15.30;96.50;;;;;;5040288;28;20455;-62
2022/08/07 00:30:16;;;;;;;0.70;0.30;;;15.30;96.60;;;;;;5021208;28;20426;-62
2022/08/07 00:32:55;;;;;;;0.20;0.20;;;15.20;96.60;;;;;;5024123;28;20435;-62
2022/08/07 00:35:23;;;;;;;0.20;0.20;;;15.20;96.70;;;;;;5038888;28;20440;-62
2022/08/07 00:37:50;;;;;;;0.30;0.30;;;15.20;96.70;;;;;;5031228;28;20429;-62
2022/08/07 00:40:17;;;;;;;0.17;0.17;;;15.20;96.70;;;;;;5021798;28;20834;-62
2022/08/07 00:43:12;;;;;;;0.35;0.32;;;15.20;96.70;;;;;;5021559;28;20425;-62
2022/08/07 00:46:06;;;;;;;0.20;0.20;;;15.20;96.60;;;;;;5024858;28;20496;-63
2022/08/07 00:48:33;;;;;;;0.20;0.20;;;15.20;96.70;;;;;;5030921;28;20426;-62
2022/08/07 00:51:01;;;;;;;0.20;0.20;;;15.10;96.70;;;;;;5036041;28;20815;-63
2022/08/07 00:53:28;;;;;;;0.20;0.20;;;15.10;96.70;;;;;;5025352;28;20787;-62
2022/08/07 00:56:15;;;;;;;0.20;0.20;;;15.10;96.70;;;;;;5034774;28;20414;-64
2022/08/07 00:58:45;;;;;;;0.13;0.13;;;15.10;96.80;;;;;;5029579;28;20521;-63
2022/08/07 01:01:17;;;;;;;0.13;0.13;;;15.00;96.90;;;;;;5037954;28;20504;-62
2022/08/07 01:03:44;;;;;;;0.30;0.30;;;15.00;97.00;;;;;;5026014;28;20435;-62
2022/08/07 01:06:27;;;;;;;0.30;0.30;;;15.00;97.00;;;;;;5027666;28;20438;-63
2022/08/07 01:08:58;;;;;;;0.17;0.17;;;15.00;97.10;;;;;;5029594;28;20422;-63
2022/08/07 01:11:30;;;;;;;0.20;0.20;;;14.90;97.30;;;;;;5035245;28;20431;-62
2022/08/07 01:14:19;;;;;;;0.20;0.20;;;14.80;97.30;;;;;;5024596;28;20431;-62
2022/08/07 01:16:58;;;;;;;0.20;0.20;;;14.80;97.30;;;;;;5038106;28;20452;-63
2022/08/07 01:19:29;;;;;;;0.30;0.30;;;14.70;97.30;;;;;;5028377;28;20432;-62
2022/08/07 01:21:58;;;;;;;0.20;0.20;;;14.70;97.30;;;;;;5025659;28;20776;-63
2022/08/07 01:24:29;;;;;;;0.30;0.30;;;14.70;97.40;;;;;;5041158;28;20425;-63
2022/08/07 01:26:57;;;;;;;0.20;0.20;;;14.60;97.50;;;;;;5031283;28;20439;-62
2022/08/07 01:29:29;;;;;;;0.50;0.20;;;14.60;97.60;;;;;;5033304;28;20439;-63
2022/08/07 01:31:59;;;;;;;0.20;0.20;;;14.50;97.60;;;;;;5020500;28;20432;-62
2022/08/07 01:34:32;;;;;;;0.20;0.20;;;14.50;97.60;;;;;;5029960;28;20458;-62
2022/08/07 01:36:59;;;;;;;0.20;0.20;;;14.50;97.70;;;;;;5031298;28;20510;-63
2022/08/07 01:39:27;;;;;;;0.10;0.10;;;14.40;97.70;;;;;;5035137;28;20475;-63
2022/08/07 01:42:14;;;;;;;0.22;0.22;;;14.40;97.80;;;;;;5039047;28;20433;-63
2022/08/07 01:45:02;;;;;;;0.20;0.20;;;14.30;97.80;;;;;;5024847;28;20421;-62
2022/08/07 01:47:29;;;;;;;0.20;0.20;;;14.30;97.90;;;;;;5042090;28;20429;-63
2022/08/07 01:50:16;;;;;;;0.20;0.20;;;14.30;97.90;;;;;;5044773;28;20420;-63
2022/08/07 01:52:57;;;;;;;0.20;0.20;;;14.30;98.10;;;;;;5047001;28;20437;-62
2022/08/07 01:55:49;;;;;;;0.22;0.22;;;14.20;98.10;;;;;;5042145;28;20495;-63
2022/08/07 01:58:20;;;;;;;0.20;0.20;;;14.10;98.10;;;;;;5024698;28;21044;-62
2022/08/07 02:01:01;;;;;;;0.20;0.20;;;14.20;98.20;;;;;;5022842;28;20581;-63
2022/08/07 02:03:56;;;;;;;0.22;0.22;;;14.10;98.30;;;;;;5026510;28;20447;-63
2022/08/07 02:06:26;;;;;;;0.10;0.10;;;14.10;98.30;;;;;;5030252;28;21158;-62
2022/08/07 02:09:01;;;;;;;0.17;0.17;;;14.10;98.50;;;;;;5027907;28;20428;-63
2022/08/07 02:11:33;;;;;;;0.20;0.20;;;14.00;98.50;;;;;;5029042;28;20427;-63
2022/08/07 02:14:21;;;;;;;0.20;0.20;;;13.90;98.60;;;;;;5025604;28;20509;-63
2022/08/07 02:17:08;;;;;;;0.20;0.20;;;13.90;98.70;;;;;;5037888;28;20433;-62
2022/08/07 02:19:40;;;;;;;0.20;0.20;;;13.90;99.00;;;;;;5028679;28;20513;-62
2022/08/07 02:22:31;;;;;;;0.20;0.20;;;13.90;98.70;;;;;;5033896;28;20419;-63
2022/08/07 02:24:59;;;;;;;0.20;0.20;;;13.90;98.70;;;;;;5021281;28;20524;-63
2022/08/07 02:27:28;;;;;;;0.28;0.28;;;13.80;98.80;;;;;;5029856;28;20429;-62
2022/08/07 02:30:02;;;;;;;0.20;0.20;;;13.80;98.80;;;;;;5025177;28;20522;-63
2022/08/07 02:32:35;;;;;;;0.20;0.20;;;13.90;98.80;;;;;;5033299;28;20518;-62
2022/08/07 02:35:24;;;;;;;0.20;0.20;;;13.90;98.80;;;;;;5026887;28;20431;-62
2022/08/07 02:38:13;;;;;;;0.20;0.20;;;14.00;98.70;;;;;;5040727;28;20420;-63
2022/08/07 02:40:43;;;;;;;0.30;0.30;;;14.00;98.70;;;;;;5026367;28;20434;-62
2022/08/07 02:43:14;;;;;;;0.30;0.30;;;14.00;98.70;;;;;;5036610;28;20439;-63
2022/08/07 02:45:43;;;;;;;0.20;0.20;;;14.00;98.80;;;;;;5021152;28;21224;-62
2022/08/07 02:48:29;;;;;;;0.20;0.20;;;14.00;98.70;;;;;;5035315;28;20451;-63
2022/08/07 02:51:02;;;;;;;0.20;0.20;;;13.90;98.70;;;;;;5015402;28;20454;-63
2022/08/07 02:53:34;;;;;;;0.20;0.20;;;14.00;98.70;;;;;;5041145;28;20421;-62
2022/08/07 02:56:07;;;;;;;0.40;0.40;;;14.00;98.70;;;;;;5016296;28;20504;-63
2022/08/07 02:58:50;;;;;;;0.20;0.20;;;13.90;98.70;;;;;;5031422;28;20610;-63
2022/08/07 03:01:21;;;;;;;0.20;0.20;;;14.00;98.70;;;;;;5024752;28;20430;-63
2022/08/07 03:04:04;;;;;;;0.27;0.27;;;14.10;98.70;;;;;;5024694;28;20470;-62
2022/08/07 03:06:38;;;;;;;0.50;0.50;;;14.00;98.70;;;;;;5019325;28;20964;-63
2022/08/07 03:09:07;;;;;;;0.25;0.25;;;14.10;98.60;;;;;;5024887;28;20527;-63
2022/08/07 03:11:39;;;;;;;0.20;0.20;;;14.10;98.60;;;;;;5036794;28;20429;-62
2022/08/07 03:14:24;;;;;;;0.17;0.17;;;14.10;98.60;;;;;;5021904;28;20462;-62
2022/08/07 03:16:54;;;;;;;0.30;0.30;;;14.10;98.60;;;;;;5025285;28;20430;-63
2022/08/07 03:19:22;;;;;;;0.30;0.30;;;14.00;98.70;;;;;;5039480;28;20433;-62
2022/08/07 03:21:49;;;;;;;0.20;0.20;;;14.00;98.90;;;;;;5019065;28;20431;-62
2022/08/07 03:24:17;;;;;;;0.20;0.20;;;13.90;98.80;;;;;;5033463;28;20460;-62
2022/08/07 03:26:59;;;;;;;0.30;0.30;;;13.90;98.90;;;;;;5030975;28;20518;-63
2022/08/07 03:29:36;;;;;;;0.10;0.10;;;13.90;98.90;;;;;;5007114;28;20438;-63
2022/08/07 03:32:10;;;;;;;0.15;0.15;;;13.90;99.00;;;;;;5033340;28;20433;-63
2022/08/07 03:34:41;;;;;;;0.20;0.20;;;13.80;99.10;;;;;;5018361;28;20477;-62
2022/08/07 03:37:30;;;;;;;0.30;0.30;;;13.70;99.20;;;;;;5022500;28;20835;-62
2022/08/07 03:39:59;;;;;;;0.30;0.30;;;13.70;99.40;;;;;;5033735;28;20473;-63
2022/08/07 03:42:42;;;;;;;0.30;0.30;;;13.70;99.40;;;;;;5015617;28;20427;-62
2022/08/07 03:45:10;;;;;;;0.50;0.20;;;13.70;99.50;;;;;;5037038;28;20490;-62
2022/08/07 03:47:37;;;;;;;0.50;0.35;;;13.60;99.50;;;;;;5038212;28;20508;-62
2022/08/07 03:50:20;;;;;;;0.30;0.30;;;13.60;99.60;;;;;;5028226;28;20436;-63
2022/08/07 03:52:51;;;;;;;0.25;0.25;;;13.60;99.60;;;;;;5031827;28;20425;-62
2022/08/07 03:55:18;;;;;;;0.30;0.30;;;13.60;99.70;;;;;;5042774;28;20435;-63
2022/08/07 03:57:49;;;;;;;0.22;0.22;;;13.60;99.60;;;;;;5031577;28;20438;-62
2022/08/07 04:00:37;;;;;;;0.20;0.20;;;13.60;99.70;;;;;;5026384;28;20747;-63
2022/08/07 04:03:12;;;;;;;0.20;0.20;;;13.60;99.70;;;;;;5038118;28;20449;-62
2022/08/07 04:05:42;;;;;;;0.80;0.30;;;13.60;99.90;;;;;;5015506;28;21021;-62
2022/08/07 04:08:13;;;;;;;0.20;0.20;;;13.50;99.70;;;;;;5040473;28;20781;-62
2022/08/07 04:10:44;;;;;;;0.20;0.20;;;13.60;99.80;;;;;;5024705;28;20483;-62
2022/08/07 04:13:33;;;;;;;0.20;0.20;;;13.60;99.80;;;;;;5024393;28;20427;-63
2022/08/07 04:16:19;;;;;;;0.25;0.25;;;13.50;99.80;;;;;;5016592;28;20429;-63
2022/08/07 04:18:58;;;;;;;0.23;0.23;;;13.50;99.90;;;;;;5026705;28;20433;-62
2022/08/07 04:21:30;;;;;;;0.10;0.10;;;13.50;99.90;;;;;;5020798;28;20440;-62
2022/08/07 04:24:00;;;;;;;0.20;0.20;;;13.40;99.90;;;;;;5025986;28;20703;-62
2022/08/07 04:26:33;;;;;;;0.30;0.30;;;13.40;99.90;;;;;;5030193;28;20437;-62
2022/08/07 04:29:00;;;;;;;0.20;0.20;;;13.40;99.90;;;;;;5035247;28;20421;-63
2022/08/07 04:31:29;;;;;;;0.20;0.20;;;13.30;99.90;;;;;;5026238;28;20438;-63
2022/08/07 04:34:16;;;;;;;0.20;0.20;;;13.30;99.90;;;;;;5040564;28;20418;-62
2022/08/07 04:36:59;;;;;;;0.20;0.20;;;13.30;99.90;;;;;;5027223;28;20440;-62
2022/08/07 04:39:28;;;;;;;0.20;0.20;;;13.30;99.90;;;;;;5051599;28;20436;-63
2022/08/07 04:42:02;;;;;;;0.10;0.10;;;13.30;99.90;;;;;;5036645;28;20527;-62
2022/08/07 04:44:29;;;;;;;0.20;0.20;;;13.30;99.90;;;;;;5033983;28;20461;-62
2022/08/07 04:47:12;;;;;;;0.20;0.20;;;13.30;99.90;;;;;;5036326;28;20513;-62
2022/08/07 04:50:03;;;;;;;0.20;0.20;;;13.30;99.90;;;;;;5028427;28;20756;-62
2022/08/07 04:52:54;;;;;;;0.30;0.30;;;13.40;99.90;;;;;;5028853;28;20464;-63
2022/08/07 04:55:20;;;;;;;0.20;0.20;;;13.50;99.90;;;;;;5029741;28;20434;-63
2022/08/07 04:58:27;;;;;;;0.20;0.20;;;13.50;99.90;;;;;;5014284;28;20420;-62
2022/08/07 05:01:25;;;;;;;0.20;0.20;;;13.60;99.90;;;;;;5024321;28;20411;-63
2022/08/07 05:04:16;;;;;;;0.10;0.10;;;13.80;99.90;;;;;;5024576;28;20418;-63
2022/08/07 05:07:17;;;;;;;0.17;0.17;;;13.80;99.90;;;;;;5029400;28;20434;-63
2022/08/07 05:10:01;;;;;;;0.20;0.20;;;13.90;99.90;;;;;;5010773;28;20432;-62
2022/08/07 05:12:40;;;;;;;0.20;0.20;;;14.00;99.90;;;;;;5011128;28;20432;-62
2022/08/07 05:15:29;;;;;;;0.20;0.20;;;14.20;99.90;;;;;;5028919;28;20528;-63
2022/08/07 05:18:01;;;;;;;0.20;0.20;;;14.30;99.90;;;;;;5029756;28;20899;-64
2022/08/07 05:20:56;;;;;;;0.28;0.28;;;14.40;99.90;;;;;;5017082;28;20583;-63
2022/08/07 05:23:35;;;;;;;0.20;0.20;;;14.60;99.90;;;;;;5017044;28;20825;-63
2022/08/07 05:26:03;;;;;;;0.22;0.22;;;14.80;99.90;;;;;;5026519;28;20914;-63
2022/08/07 05:28:47;;;;;;;0.20;0.20;;;15.40;99.90;;;;;;5030210;28;20433;-63
2022/08/07 05:31:18;;;;;;;0.20;0.20;;;16.40;99.60;;;;;;5031465;28;20429;-60
2022/08/07 05:33:50;;;;;;;0.20;0.20;;;17.40;98.50;;;;;;5028541;28;20905;-61
2022/08/07 05:36:32;;;;;;;0.20;0.20;;;;;;;;;;5012592;28;20431;-61
2022/08/07 05:39:02;;;;;;;0.20;0.20;;;18.30;97.20;;;;;;5030452;28;20520;-61
2022/08/07 05:41:50;;;;;;;0.20;0.20;;;19.60;95.30;;;;;;5027912;28;21010;-61
2022/08/07 05:44:34;;;;;;;0.20;0.20;;;20.20;94.60;;;;;;5035455;28;20443;-62
2022/08/07 05:47:01;;;;;;;0.20;0.20;;;20.60;94.40;;;;;;5038873;28;20603;-60
2022/08/07 05:49:48;;;;;;;0.25;0.25;;;20.70;93.90;;;;;;5020511;28;20442;-57
2022/08/07 05:52:16;;;;;;;0.30;0.30;;;20.80;93.70;;;;;;5024017;28;20508;-59
2022/08/07 05:54:46;;;;;;;0.23;0.23;;;20.80;93.90;;;;;;5038299;28;20429;-57
2022/08/07 05:57:23;;;;;;;0.20;0.20;;;21.10;93.20;;;;;;5037316;28;20440;-57
2022/08/07 05:59:58;;;;;;;0.20;0.20;;;21.20;92.80;;;;;;5030748;28;20431;-57
2022/08/07 06:02:29;;;;;;;0.13;0.13;;;21.60;93.00;;;;;;5034791;28;20436;-58
2022/08/07 06:05:05;;;;;;;0.30;0.30;;;21.80;92.60;;;;;;5025176;28;20521;-58
2022/08/07 06:07:37;;;;;;;0.10;0.10;;;;;;;;;;5033432;28;20442;-57
2022/08/07 06:10:24;;;;;;;0.20;0.20;;;;;;;;;;4987239;28;20953;-58
2022/08/07 06:12:53;;;;;;;0.20;0.20;;;;;;;;;;5021510;28;20492;-58
2022/08/07 06:15:21;;;;;;;0.20;0.20;;;22.10;92.40;;;;;;5020986;28;20431;-59
2022/08/07 06:18:10;;;;;;;0.30;0.30;;;22.50;91.90;;;;;;5020719;28;21079;-58
2022/08/07 06:20:40;;;;;;;0.20;0.20;;;22.60;91.60;;;;;;5014013;28;20444;-59
2022/08/07 06:23:28;;;;;;;0.17;0.17;;;22.70;91.50;;;;;;5018144;28;20423;-58
2022/08/07 06:26:15;;;;;;;0.30;0.30;;;23.10;91.10;;;;;;5021187;28;20792;-58
2022/08/07 06:28:52;;;;;;;0.20;0.20;;;23.30;91.20;;;;;;5013274;28;20930;-58
2022/08/07 06:31:20;;;;;;;0.20;0.20;;;23.20;90.60;;;;;;5018404;28;20436;-59
2022/08/07 06:34:04;;;;;;;0.20;0.20;;;23.00;91.00;;;;;;5032335;28;20469;-59
2022/08/07 06:36:31;;;;;;;0.20;0.20;;;23.70;91.00;;;;;;5025038;28;20463;-58
2022/08/07 06:39:01;;;;;;;0.20;0.20;;;23.90;90.80;;;;;;5025526;28;20470;-58
2022/08/07 06:42:01;;;;;;;0.20;0.20;;;23.90;90.10;;;;;;5027969;28;20955;-59
2022/08/07 06:44:30;;;;;;;0.20;0.20;;;23.70;90.50;;;;;;5021603;28;20981;-59
2022/08/07 06:47:03;;;;;;;0.47;0.22;;;23.40;90.50;;;;;;5033423;28;20459;-59
2022/08/07 06:49:38;;;;;;;0.25;0.25;;;23.50;90.40;;;;;;5027640;28;20435;-59
2022/08/07 06:52:33;;;;;;;0.20;0.20;;;23.50;90.10;;;;;;5029608;28;21062;-58
2022/08/07 06:55:09;;;;;;;0.25;0.25;;;23.40;90.40;;;;;;5023942;28;20916;-59
2022/08/07 06:58:06;;;;;;;0.20;0.20;;;23.80;90.00;;;;;;5027874;28;20452;-58
2022/08/07 07:00:39;;;;;;;0.28;0.20;;;24.00;90.10;;;;;;5031139;28;20468;-58
2022/08/07 07:03:08;;;;;;;0.15;0.15;;;24.10;89.60;;;;;;5024037;28;20521;-58
2022/08/07 07:05:43;;;;;;;0.10;0.10;;;23.70;90.00;;;;;;5020427;28;20430;-60
2022/08/07 07:08:31;;;;;;;0.25;0.25;;;23.90;89.90;;;;;;5021262;28;20817;-59
2022/08/07 07:10:59;;;;;;;0.20;0.20;;;24.20;89.00;;;;;;5026507;28;20443;-59
2022/08/07 07:13:33;;;;;;;0.30;0.20;;;24.40;89.30;;;;;;5031384;28;20440;-59
2022/08/07 07:16:24;;;;;;;0.20;0.20;;;24.30;88.40;;;;;;5032229;28;20797;-59
2022/08/07 07:18:59;;;;;;;0.20;0.20;;;24.10;88.70;;;;;;5028210;28;20463;-59
2022/08/07 07:21:47;;;;;;;0.20;0.20;;;24.30;89.10;;;;;;5019518;28;20415;-59
2022/08/07 07:24:37;;;;;;;0.10;0.10;;;24.50;89.10;;;;;;5022890;28;20411;-60
2022/08/07 07:27:12;;;;;;;0.20;0.20;;;25.20;88.50;;;;;;5039154;28;20425;-59
2022/08/07 07:29:48;;;;;;;0.30;0.30;;;25.20;87.30;;;;;;5020137;28;20431;-59
2022/08/07 07:32:39;;;;;;;0.20;0.20;;;25.20;88.50;;;;;;5020337;28;20905;-59
2022/08/07 07:35:09;;;;;;;0.20;0.20;;;25.30;86.70;;;;;;5023761;28;20432;-60
2022/08/07 07:37:40;;;;;;;0.22;0.22;;;25.20;87.30;;;;;;5016834;28;20825;-59
2022/08/07 07:40:20;;;;;;;0.20;0.20;;;25.30;87.20;;;;;;5030950;28;20442;-59
2022/08/07 07:42:54;;;;;;;0.10;0.10;;;25.20;87.00;;;;;;5030008;28;20491;-59
2022/08/07 07:45:25;;;;;;;0.30;0.22;;;25.20;87.60;;;;;;5028178;28;20440;-59
2022/08/07 07:48:16;;;;;;;0.20;0.20;;;24.80;89.10;;;;;;5019474;28;20411;-59
2022/08/07 07:51:04;;;;;;;0.10;0.10;;;24.70;87.50;;;;;;5017834;28;20923;-59
2022/08/07 07:53:41;;;;;;;0.10;0.10;;;24.90;88.10;;;;;;5023408;28;20477;-59
2022/08/07 07:56:21;;;;;;;0.20;0.20;;;24.60;86.70;;;;;;5030496;28;20436;-59
2022/08/07 07:59:03;;;;;;;0.30;0.30;;;24.10;88.60;;;;;;5009996;28;20519;-59
2022/08/07 08:01:36;;;;;;;0.20;0.20;;;23.80;88.10;;;;;;5022177;28;20464;-59
2022/08/07 08:04:26;;;;;;;0.30;0.30;;;24.70;89.00;;;;;;5028760;28;20915;-59
2022/08/07 08:06:54;;;;;;;0.20;0.20;;;25.10;86.90;;;;;;5019863;28;20441;-59
2022/08/07 08:09:24;;;;;;;0.20;0.20;;;25.50;86.70;;;;;;5023959;28;20424;-59
2022/08/07 08:11:57;;;;;;;0.20;0.20;;;26.00;86.60;;;;;;5028896;28;20425;-65
2022/08/07 08:14:31;;;;;;;0.30;0.30;;;25.80;87.50;;;;;;5013551;28;20561;-62
2022/08/07 08:17:03;;;;;;;0.30;0.30;;;25.90;86.60;;;;;;5016270;28;20451;-58
2022/08/07 08:19:53;;;;;;;0.30;0.30;;;26.10;86.10;;;;;;5025768;28;21009;-59
2022/08/07 08:28:36;;;;;;;0.20;0.20;;;26.10;87.20;;;;;;5016141;28;20435;-58
2022/08/07 08:31:14;;;;;;;0.28;0.28;;;25.70;87.10;;;;;;5016405;28;21277;-58
2022/08/07 08:33:58;;;;;;;0.10;0.10;;;24.70;87.60;;;;;;5021721;28;21045;-59
2022/08/07 08:36:29;;;;;;;0.20;0.20;;;25.00;88.70;;;;;;5019610;28;20542;-59
2022/08/07 08:38:59;;;;;;;0.20;0.20;;;25.10;87.60;;;;;;5024900;28;20442;-59
2022/08/07 08:41:46;;;;;;;0.22;0.22;;;25.30;88.60;;;;;;5018697;28;20482;-58
2022/08/07 08:44:49;;;;;;;0.28;0.28;;;25.60;88.60;;;;;;5016901;28;20430;-58
2022/08/07 08:47:25;;;;;;;0.20;0.20;;;25.40;89.50;;;;;;5024080;28;20997;-59
2022/08/07 08:50:04;;;;;;;0.40;0.40;;;25.30;87.10;;;;;;5026735;28;20521;-59
2022/08/07 08:52:46;;;;;;;0.30;0.30;;;24.80;88.20;;;;;;5024839;28;21111;-58
2022/08/07 08:55:35;;;;;;;0.20;0.20;;;24.80;90.20;;;;;;5030930;28;20481;-59
2022/08/07 08:58:47;;;;;;;0.30;0.30;;;25.30;90.10;;;;;;5026849;28;20901;-58
2022/08/07 09:01:49;;;;;;;0.20;0.20;;;25.70;89.10;;;;;;5019894;28;20434;-59
2022/08/07 09:04:35;;;;;;;0.20;0.20;;;25.90;90.00;;;;;;5025856;28;20466;-59
2022/08/07 09:07:30;;;;;;;0.20;0.20;;;26.40;90.10;;;;;;5022446;28;21136;-59
2022/08/07 09:10:18;;;;;;;0.20;0.20;;;;;;;;;;5028963;28;20543;-59
2022/08/07 09:13:21;;;;;;;0.22;0.22;;;26.90;86.80;;;;;;5020986;28;20450;-60
2022/08/07 09:16:09;;;;;;;0.20;0.20;;;27.50;86.00;;;;;;5007585;28;20517;-59
2022/08/07 09:19:07;;;;;;;0.30;0.30;;;27.20;87.00;;;;;;5026659;28;20431;-59
2022/08/07 09:22:12;;;;;;;0.30;0.30;;;27.20;88.50;;;;;;5025725;28;20441;-59
2022/08/07 09:25:08;;;;;;;0.30;0.30;;;26.80;87.60;;;;;;5019256;28;20425;-59
2022/08/07 09:28:02;;;;;;;0.20;0.20;;;26.50;87.10;;;;;;5035684;28;20511;-59
2022/08/07 09:30:56;;;;;;;0.30;0.30;;;26.50;88.50;;;;;;5016997;28;20505;-60
2022/08/07 09:33:48;;;;;;;0.20;0.20;;;26.70;88.70;;;;;;5041793;28;20442;-59
2022/08/07 09:36:57;;;;;;;0.30;0.30;;;26.80;89.00;;;;;;5021409;28;20470;-59
2022/08/07 09:39:48;;;;;;;0.20;0.20;;;26.90;87.80;;;;;;5014892;28;20488;-59
2022/08/07 09:42:44;;;;;;;0.30;0.30;;;27.20;88.00;;;;;;5023241;28;20438;-59
2022/08/07 09:45:30;;;;;;;0.60;0.20;;;27.60;87.30;;;;;;5059353;28;20463;-60
2022/08/07 09:48:41;;;;;;;0.20;0.20;;;28.30;86.60;;;;;;5030711;28;20434;-59
2022/08/07 09:51:43;;;;;;;0.30;0.30;;;28.40;86.10;;;;;;4999156;28;20452;-60
2022/08/07 09:54:42;;;;;;;0.25;0.25;;;28.40;86.80;;;;;;5016981;28;20521;-59
2022/08/07 09:57:18;;;;;;;0.20;0.20;;;27.50;87.20;;;;;;5013343;28;20433;-59
2022/08/07 10:00:07;;;;;;;0.80;0.40;;;27.90;88.50;;;;;;5050382;28;20445;-59
2022/08/07 10:02:47;;;;;;;0.25;0.25;;;28.40;87.30;;;;;;5016661;28;20489;-59
2022/08/07 10:05:42;;;;;;;0.30;0.30;;;28.30;87.90;;;;;;5018917;28;20474;-57
2022/08/07 10:08:39;;;;;;;0.32;0.32;;;28.50;87.90;;;;;;5014641;28;21128;-58
2022/08/07 10:11:30;;;;;;;0.30;0.30;;;28.60;86.30;;;;;;5016077;28;20431;-58
2022/08/07 10:14:51;;;;;;;0.30;0.30;;;28.20;87.30;;;;;;5016303;28;20419;-58
2022/08/07 10:17:57;;;;;;;0.50;0.40;;;28.40;86.50;;;;;;5012615;28;20442;-59
2022/08/07 10:21:06;;;;;;;0.28;0.28;;;28.30;87.30;;;;;;5017522;28;20442;-58
2022/08/07 10:24:33;;;;;;;0.30;0.30;;;28.20;87.60;;;;;;5014688;28;20415;-58
2022/08/07 10:27:23;;;;;;;0.40;0.30;;;28.80;86.50;;;;;;5017879;28;20516;-58
2022/08/07 10:30:18;;;;;;;0.40;0.40;;;28.50;85.60;;;;;;5019343;28;20446;-58
2022/08/07 10:33:04;;;;;;;0.30;0.30;;;28.50;85.70;;;;;;5018851;28;20444;-58
2022/08/07 10:35:37;;;;;;;0.40;0.40;;;28.60;87.40;;;;;;5018100;28;20500;-58
2022/08/07 10:38:29;;;;;;;0.30;0.30;;;27.70;85.60;;;;;;5011586;28;20446;-58
2022/08/07 10:41:35;;;;;;;0.32;0.32;;;27.20;86.90;;;;;;5021535;28;20439;-58
2022/08/07 10:45:00;;;;;;;0.40;0.40;;;27.70;87.20;;;;;;5022028;28;20458;-58
2022/08/07 10:48:00;;;;;;;0.30;0.30;;;28.40;85.30;;;;;;5011219;28;20430;-58
2022/08/07 10:50:55;;;;;;;0.20;0.20;;;29.30;83.10;;;;;;5018804;28;20435;-58
2022/08/07 10:53:32;;;;;;;0.30;0.30;;;29.70;82.90;;;;;;5019525;28;20439;-58
2022/08/07 10:56:19;;;;;;;0.40;0.40;;;29.80;82.20;;;;;;5014176;28;20458;-57
2022/08/07 10:59:18;;;;;;;0.30;0.30;;;29.80;81.20;;;;;;5033459;28;20440;-58
2022/08/07 11:01:56;;;;;;;0.40;0.40;;;30.00;80.70;;;;;;5042950;28;20468;-58
2022/08/07 11:05:15;;;;;;;0.30;0.30;;;30.00;81.10;;;;;;5031662;28;20853;-57
2022/08/07 11:07:56;;;;;;;0.20;0.20;;;29.50;80.70;;;;;;5037611;28;21002;-57
2022/08/07 11:10:34;;;;;;;0.20;0.20;;;28.90;81.30;;;;;;5017049;28;20439;-58
2022/08/07 11:13:18;;;;;;;0.20;0.20;;;28.90;80.90;;;;;;5017996;28;20488;-58
2022/08/07 11:16:10;;;;;;;0.30;0.30;;;29.00;81.80;;;;;;5015013;28;20413;-57
2022/08/07 11:18:49;;;;;;;0.35;0.35;;;28.50;80.00;;;;;;5017832;28;20447;-58
2022/08/07 11:21:26;;;;;;;0.20;0.20;;;28.10;80.80;;;;;;5013556;28;20497;-58
2022/08/07 11:24:05;;;;;;;0.20;0.20;;;27.70;81.10;;;;;;5007323;28;20510;-57
2022/08/07 11:27:00;;;;;;;0.30;0.30;;;28.10;81.10;;;;;;5019474;28;20481;-58
2022/08/07 11:29:38;;;;;;;0.30;0.30;;;27.80;81.00;;;;;;5026638;28;20479;-57
2022/08/07 11:32:28;;;;;;;0.30;0.30;;;28.60;81.00;;;;;;5026044;28;20426;-58
2022/08/07 11:35:01;;;;;;;0.28;0.28;;;29.00;79.40;;;;;;5014471;28;20423;-58
2022/08/07 11:37:40;;;;;;;0.22;0.22;;;29.70;80.90;;;;;;5023738;28;20478;-57
2022/08/07 11:40:43;;;;;;;0.22;0.22;;;30.10;79.40;;;;;;5021113;28;20813;-58
2022/08/07 11:43:28;;;;;;;0.20;0.20;;;30.20;78.20;;;;;;5017837;28;20518;-58
2022/08/07 11:46:58;;;;;;;0.30;0.30;;;30.30;77.70;;;;;;5019102;28;20765;-58
2022/08/07 11:50:00;;;;;;;0.22;0.22;;;30.10;79.30;;;;;;5018539;28;20444;-58
2022/08/07 11:53:13;;;;;;;0.20;0.20;;;29.20;76.70;;;;;;5033713;28;20415;-58
2022/08/07 11:56:06;;;;;;;0.20;0.20;;;28.90;77.90;;;;;;5021342;28;20447;-58
2022/08/07 11:59:09;;;;;;;0.30;0.30;;;28.80;79.50;;;;;;5026362;28;20933;-58
2022/08/07 12:02:06;;;;;;;0.30;0.30;;;29.00;79.40;;;;;;5035714;28;20419;-59
2022/08/07 12:05:05;;;;;;;0.30;0.30;;;28.30;79.40;;;;;;5026782;28;20436;-58
2022/08/07 12:07:50;;;;;;;0.20;0.20;;;28.70;78.60;;;;;;5030963;28;20426;-58
2022/08/07 12:10:39;;;;;;;0.20;0.20;;;28.90;79.00;;;;;;5027835;28;20565;-58
2022/08/07 12:13:22;;;;;;;0.28;0.28;;;29.50;79.00;;;;;;5030049;28;20455;-58
2022/08/07 12:16:09;;;;;;;0.20;0.20;;;29.90;78.00;;;;;;5028762;28;20438;-58
2022/08/07 12:19:04;;;;;;;0.20;0.20;;;30.00;78.40;;;;;;5029761;28;20437;-58
2022/08/07 12:22:09;;;;;;;0.20;0.20;;;30.40;77.60;;;;;;5022708;28;20436;-58
2022/08/07 12:28:23;;;;;;;0.20;0.20;;;30.40;75.80;;;;;;5027575;28;20419;-57
2022/08/07 12:31:07;;;;;;;0.30;0.30;;;29.90;76.90;;;;;;5040380;28;20538;-58
2022/08/07 12:33:36;;;;;;;0.30;0.30;;;29.90;77.30;;;;;;5035015;28;20433;-58
2022/08/07 12:36:24;;;;;;;0.32;0.32;;;29.80;76.00;;;;;;5027792;28;20980;-58
2022/08/07 12:39:03;;;;;;;0.20;0.20;;;29.70;76.50;;;;;;5020856;28;20481;-58
2022/08/07 12:41:52;;;;;;;0.22;0.22;;;29.40;76.00;;;;;;5023612;28;20440;-57
2022/08/07 12:44:24;;;;;;;0.20;0.20;;;29.60;77.40;;;;;;5023840;28;20442;-60
2022/08/07 12:47:18;;;;;;;0.30;0.30;;;29.60;77.00;;;;;;5026002;28;20436;-58
2022/08/07 12:50:12;;;;;;;0.20;0.20;;;29.70;76.70;;;;;;5028390;28;20466;-59
2022/08/07 12:53:06;;;;;;;0.20;0.20;;;29.70;76.00;;;;;;5016369;28;20446;-59
2022/08/07 12:56:23;;;;;;;0.30;0.30;;;29.20;76.40;;;;;;5023116;28;20432;-58
2022/08/07 12:58:53;;;;;;;0.30;0.30;;;29.00;77.40;;;;;;5021247;28;20439;-58
2022/08/07 13:01:25;;;;;;;0.30;0.30;;;28.60;76.60;;;;;;5029306;28;20925;-58
2022/08/07 13:04:16;;;;;;;0.40;0.37;;;28.70;77.90;;;;;;5019079;28;20442;-58
2022/08/07 13:07:27;;;;;;;0.20;0.20;;;28.40;76.60;;;;;;5016730;28;20445;-59
2022/08/07 13:10:22;;;;;;;0.20;0.20;;;28.60;76.30;;;;;;5017606;28;20423;-58
2022/08/07 13:13:15;;;;;;;0.28;0.28;;;29.00;76.50;;;;;;5023744;28;20446;-59
2022/08/07 13:16:26;;;;;;;0.30;0.30;;;29.40;77.20;;;;;;5017428;28;20423;-58
2022/08/07 13:18:59;;;;;;;0.20;0.20;;;29.70;76.50;;;;;;5027261;28;20863;-59
2022/08/07 13:21:42;;;;;;;0.20;0.20;;;29.90;75.20;;;;;;5022751;28;20434;-58
2022/08/07 13:24:49;;;;;;;0.30;0.20;;;29.90;75.20;;;;;;5031804;28;20425;-59
2022/08/07 13:27:54;;;;;;;0.22;0.22;;;30.20;75.00;;;;;;4998263;28;20439;-58
2022/08/07 13:30:43;;;;;;;0.30;0.25;;;30.30;74.80;;;;;;5017902;28;21796;-58
2022/08/07 13:33:38;;;;;;;0.20;0.20;;;30.10;74.70;;;;;;5026227;28;20521;-58
2022/08/07 13:36:33;;;;;;;0.20;0.20;;;30.00;75.40;;;;;;5016443;28;20415;-59
2022/08/07 13:39:09;;;;;;;0.30;0.30;;;30.70;74.80;;;;;;5023987;28;20437;-59
2022/08/07 13:41:56;;;;;;;0.20;0.20;;;31.20;74.60;;;;;;5022843;28;20468;-58
2022/08/07 13:44:26;;;;;;;0.30;0.30;;;31.40;73.30;;;;;;5024256;28;20475;-58
2022/08/07 13:47:05;;;;;;;0.20;0.20;;;31.50;72.60;;;;;;5028589;28;20439;-59
2022/08/07 13:49:42;;;;;;;0.20;0.20;;;31.90;72.90;;;;;;5022903;28;20429;-58
2022/08/07 13:52:30;;;;;;;0.20;0.20;;;32.10;71.60;;;;;;5020187;28;20411;-58
2022/08/07 13:55:13;;;;;;;0.20;0.20;;;31.90;72.70;;;;;;5016614;28;20510;-59
2022/08/07 13:58:59;;;;;;;0.30;0.30;;;32.60;71.00;;;;;;5021590;28;20451;-58
2022/08/07 14:01:06;;;;;;;0.20;0.20;;;32.20;70.30;;;;;;5014734;28;20441;-58
2022/08/07 14:03:40;;;;;;;0.20;0.20;;;32.80;70.10;;;;;;5019740;28;20473;-58
2022/08/07 14:06:35;;;;;;;0.20;0.20;;;32.80;70.00;;;;;;5018185;28;20471;-58
2022/08/07 14:09:09;;;;;;;0.30;0.30;;;33.10;69.60;;;;;;5027675;28;20437;-58
2022/08/07 14:12:01;;;;;;;0.30;0.30;;;32.80;69.80;;;;;;5024978;28;20433;-59
2022/08/07 14:14:43;;;;;;;0.20;0.20;;;33.50;69.50;;;;;;5037227;28;20460;-58
2022/08/07 14:17:13;;;;;;;0.30;0.30;;;33.80;68.90;;;;;;5031165;28;21225;-59